createdAt,value
2018-04-18T00:00:44.294Z,12.97
2018-04-18T00:03:13.260Z,12.53
2018-04-18T00:05:42.392Z,9.73
2018-04-18T00:08:10.677Z,11.50
2018-04-18T00:10:38.865Z,10.37
2018-04-18T00:13:06.990Z,11.60
2018-04-18T00:15:35.116Z,11.30
2018-04-18T00:18:03.358Z,13.57
2018-04-18T00:20:32.254Z,10.00
2018-04-18T00:23:01.158Z,9.77
2018-04-18T00:25:29.274Z,12.20
2018-04-18T00:27:57.696Z,11.70
2018-04-18T00:30:26.583Z,11.60
2018-04-18T00:32:55.469Z,13.83
2018-04-18T00:35:24.365Z,10.13
2018-04-18T00:37:53.262Z,10.43
2018-04-18T00:40:23.204Z,15.30
2018-04-18T00:42:51.366Z,11.70
2018-04-18T00:45:19.477Z,13.10
2018-04-18T00:47:47.626Z,11.87
2018-04-18T00:50:15.888Z,14.40
2018-04-18T00:52:44.167Z,11.30
2018-04-18T00:55:12.290Z,14.03
2018-04-18T00:57:41.015Z,15.63
2018-04-18T01:00:09.138Z,13.83
2018-04-18T01:02:37.259Z,12.10
2018-04-18T01:05:07.310Z,13.27
2018-04-18T01:07:36.424Z,14.37
2018-04-18T01:10:04.565Z,12.67
2018-04-18T01:12:32.704Z,13.97
2018-04-18T01:15:01.597Z,13.30
2018-04-18T01:17:30.596Z,14.30
2018-04-18T01:19:59.495Z,12.80
2018-04-18T01:22:27.754Z,15.53
2018-04-18T01:24:57.015Z,13.17
2018-04-18T01:27:25.297Z,13.93
2018-04-18T01:29:53.432Z,12.93
2018-04-18T01:32:21.537Z,17.43
2018-04-18T01:34:49.679Z,15.60
2018-04-18T01:37:17.794Z,17.47
2018-04-18T01:39:45.919Z,13.03
2018-04-18T01:42:14.049Z,13.20
2018-04-18T01:44:43.004Z,15.17
2018-04-18T01:47:11.171Z,13.23
2018-04-18T01:49:39.302Z,16.07
2018-04-18T01:52:08.189Z,16.00
2018-04-18T01:54:37.431Z,17.60
2018-04-18T01:57:06.743Z,14.70
2018-04-18T01:59:34.860Z,13.67
2018-04-18T02:02:03.852Z,13.33
2018-04-18T02:04:32.096Z,12.17
2018-04-18T02:07:00.285Z,12.57
2018-04-18T02:09:28.576Z,15.23
2018-04-18T02:11:56.709Z,15.60
2018-04-18T02:14:24.851Z,14.80
2018-04-18T02:16:52.964Z,15.30
2018-04-18T02:19:21.098Z,15.83
2018-04-18T02:21:49.229Z,17.47
2018-04-18T02:24:18.114Z,18.17
2018-04-18T02:26:46.257Z,14.43
2018-04-18T02:29:14.763Z,12.77
2018-04-18T02:31:42.886Z,17.67
2018-04-18T02:34:11.041Z,17.73
2018-04-18T02:36:39.920Z,14.20
2018-04-18T02:39:08.032Z,13.27
2018-04-18T02:41:36.176Z,14.17
2018-04-18T02:44:05.103Z,14.87
2018-04-18T02:46:33.211Z,17.33
2018-04-18T02:49:01.347Z,13.70
2018-04-18T02:51:29.599Z,13.27
2018-04-18T02:53:58.497Z,14.53
2018-04-18T02:56:26.636Z,16.13
2018-04-18T02:58:54.748Z,13.20
2018-04-18T03:01:22.883Z,13.67
2018-04-18T03:03:51.029Z,16.53
2018-04-18T03:06:19.150Z,18.17
2018-04-18T03:08:48.055Z,18.60
2018-04-18T03:11:16.250Z,16.90
2018-04-18T03:13:44.502Z,16.73
2018-04-18T03:16:13.497Z,16.70
2018-04-18T03:18:41.638Z,14.20
2018-04-18T03:21:09.765Z,18.83
2018-04-18T03:23:37.874Z,14.07
2018-04-18T03:26:06.150Z,16.33
2018-04-18T03:28:34.449Z,15.80
2018-04-18T03:31:03.357Z,20.37
2018-04-18T03:33:32.274Z,20.57
2018-04-18T03:36:00.442Z,17.53
2018-04-18T03:38:29.392Z,16.00
2018-04-18T03:40:57.510Z,16.43
2018-04-18T03:43:25.833Z,15.53
2018-04-18T03:45:53.945Z,17.20
2018-04-18T03:48:22.307Z,17.20
2018-04-18T03:50:51.199Z,12.80
2018-04-18T03:53:20.085Z,17.93
2018-04-18T03:55:49.085Z,16.77
2018-04-18T03:58:17.961Z,15.63
2018-04-18T04:00:46.075Z,17.90
2018-04-18T04:03:14.233Z,17.97
2018-04-18T04:05:42.358Z,17.97
2018-04-18T04:08:10.552Z,19.53
2018-04-18T04:10:38.690Z,17.03
2018-04-18T04:13:06.807Z,18.63
2018-04-18T04:15:35.837Z,15.87
2018-04-18T04:18:15.819Z,16.50
2018-04-18T04:20:55.946Z,18.57
2018-04-18T04:23:35.986Z,13.97
2018-04-18T04:26:04.144Z,16.87
2018-04-18T04:28:33.315Z,15.20
2018-04-18T04:31:02.203Z,13.43
2018-04-18T04:33:32.537Z,15.53
2018-04-18T04:36:02.022Z,13.63
2018-04-18T04:38:30.138Z,14.80
2018-04-18T04:40:59.116Z,13.47
2018-04-18T04:43:27.993Z,12.93
2018-04-18T04:45:56.124Z,13.67
2018-04-18T04:48:24.367Z,12.10
2018-04-18T04:50:52.677Z,14.77
2018-04-18T04:53:22.195Z,12.00
2018-04-18T04:55:50.310Z,16.77
2018-04-18T04:58:19.196Z,14.83
2018-04-18T05:00:48.216Z,13.77
2018-04-18T05:03:16.945Z,14.90
2018-04-18T05:05:45.079Z,15.50
2018-04-18T05:08:13.394Z,20.20
2018-04-18T05:10:41.529Z,15.57
2018-04-18T05:13:10.498Z,18.13
2018-04-18T05:15:39.406Z,16.03
2018-04-18T05:18:07.672Z,20.53
2018-04-18T05:20:35.802Z,16.17
2018-04-18T05:23:03.933Z,21.40
2018-04-18T05:25:32.597Z,14.33
2018-04-18T05:28:00.892Z,18.97
2018-04-18T05:30:29.068Z,18.57
2018-04-18T05:32:57.194Z,18.27
2018-04-18T05:35:25.453Z,21.03
2018-04-18T05:37:54.487Z,17.77
2018-04-18T05:40:23.396Z,17.73
2018-04-18T05:42:51.613Z,20.23
2018-04-18T05:45:19.756Z,19.90
2018-04-18T05:47:47.875Z,18.47
2018-04-18T05:50:16.429Z,20.57
2018-04-18T05:52:44.549Z,17.60
2018-04-18T05:55:13.599Z,16.17
2018-04-18T05:57:41.973Z,26.20
2018-04-18T06:00:10.089Z,17.40
2018-04-18T06:02:39.039Z,17.80
2018-04-18T06:05:07.230Z,15.90
2018-04-18T06:07:35.441Z,18.07
2018-04-18T06:10:03.595Z,19.50
2018-04-18T06:12:33.411Z,14.57
2018-04-18T06:15:01.549Z,18.07
2018-04-18T06:17:29.730Z,22.73
2018-04-18T06:19:57.947Z,16.80
2018-04-18T06:22:27.094Z,17.60
2018-04-18T06:24:58.994Z,14.37
2018-04-18T06:27:27.890Z,16.57
2018-04-18T06:29:56.779Z,17.93
2018-04-18T06:32:26.266Z,12.33
2018-04-18T06:34:54.451Z,20.90
2018-04-18T06:37:22.586Z,16.63
2018-04-18T06:39:50.716Z,18.33
2018-04-18T06:42:18.844Z,12.77
2018-04-18T06:44:47.132Z,18.00
2018-04-18T06:47:15.262Z,16.80
2018-04-18T06:49:43.383Z,14.83
2018-04-18T06:52:11.496Z,15.40
2018-04-18T06:54:39.619Z,16.87
2018-04-18T06:57:07.761Z,18.77
2018-04-18T06:59:36.595Z,17.20
2018-04-18T07:02:04.731Z,17.70
2018-04-18T07:04:32.867Z,12.40
2018-04-18T07:07:01.000Z,16.00
2018-04-18T07:09:29.118Z,14.13
2018-04-18T07:11:58.015Z,16.60
2018-04-18T07:14:27.092Z,15.27
2018-04-18T07:16:55.300Z,15.10
2018-04-18T07:19:23.441Z,12.33
2018-04-18T07:21:51.560Z,17.40
2018-04-18T07:24:19.667Z,16.40
2018-04-18T07:26:48.567Z,17.17
2018-04-18T07:29:17.571Z,19.60
2018-04-18T07:31:46.458Z,14.27
2018-04-18T07:34:15.358Z,16.80
2018-04-18T07:36:43.512Z,13.60
2018-04-18T07:39:12.403Z,14.93
2018-04-18T07:41:40.647Z,18.40
2018-04-18T07:44:08.788Z,15.23
2018-04-18T07:46:36.943Z,16.47
2018-04-18T07:49:05.110Z,15.10
2018-04-18T07:51:33.998Z,10.70
2018-04-18T07:54:02.908Z,12.87
2018-04-18T07:56:31.784Z,14.10
2018-04-18T07:58:59.912Z,16.03
2018-04-18T08:01:28.027Z,11.47
2018-04-18T08:03:56.921Z,12.20
2018-04-18T08:06:25.805Z,12.03
2018-04-18T08:08:53.978Z,10.30
2018-04-18T08:11:23.007Z,10.60
2018-04-18T08:13:51.111Z,11.97
2018-04-18T08:16:19.302Z,12.90
2018-04-18T08:18:47.413Z,9.87
2018-04-18T08:21:15.590Z,9.50
2018-04-18T08:23:43.838Z,11.23
2018-04-18T08:26:12.785Z,12.37
2018-04-18T08:28:40.955Z,10.23
2018-04-18T08:31:28.522Z,11.60
2018-04-18T08:33:56.711Z,7.20
2018-04-18T08:36:25.648Z,12.37
2018-04-18T08:38:53.817Z,9.93
2018-04-18T08:41:22.035Z,7.83
2018-04-18T08:43:50.170Z,14.53
2018-04-18T08:46:18.307Z,9.10
2018-04-18T08:48:46.680Z,8.33
2018-04-18T08:51:15.683Z,10.10
2018-04-18T08:53:43.857Z,10.27
2018-04-18T08:56:12.086Z,9.67
2018-04-18T08:58:40.246Z,8.00
2018-04-18T09:01:09.203Z,11.20
2018-04-18T09:03:37.485Z,10.10
2018-04-18T09:06:06.376Z,10.10
2018-04-18T09:08:34.483Z,7.67
2018-04-18T09:11:04.400Z,10.90
2018-04-18T09:13:32.682Z,10.77
2018-04-18T09:16:00.805Z,8.13
2018-04-18T09:18:28.946Z,8.20
2018-04-18T09:20:57.816Z,10.07
2018-04-18T09:23:25.925Z,8.07
2018-04-18T09:25:54.808Z,9.87
2018-04-18T09:28:24.007Z,9.93
2018-04-18T09:30:52.888Z,11.17
2018-04-18T09:33:21.030Z,8.20
2018-04-18T09:35:49.214Z,8.33
2018-04-18T09:38:17.333Z,10.47
2018-04-18T09:40:45.676Z,8.20
2018-04-18T09:43:13.780Z,8.13
2018-04-18T09:45:42.764Z,9.97
2018-04-18T09:48:11.805Z,8.83
2018-04-18T09:50:40.192Z,11.17
2018-04-18T09:53:08.298Z,13.50
2018-04-18T09:55:37.173Z,10.40
2018-04-18T09:58:05.293Z,9.47
2018-04-18T10:00:39.159Z,14.07
2018-04-18T10:03:07.281Z,9.03
2018-04-18T10:05:42.722Z,10.17
2018-04-18T10:08:10.956Z,8.17
2018-04-18T10:10:39.058Z,11.37
2018-04-18T10:13:07.264Z,10.97
2018-04-18T10:15:35.383Z,9.30
2018-04-18T10:18:04.274Z,11.07
2018-04-18T10:20:33.177Z,10.03
2018-04-18T10:23:02.053Z,11.50
2018-04-18T10:25:30.928Z,9.27
2018-04-18T10:27:59.044Z,8.57
2018-04-18T10:30:27.156Z,12.23
2018-04-18T10:32:55.303Z,10.00
2018-04-18T10:35:23.406Z,14.00
2018-04-18T10:37:51.540Z,11.10
2018-04-18T10:40:19.752Z,10.93
2018-04-18T10:42:47.879Z,13.33
2018-04-18T10:45:16.233Z,11.00
2018-04-18T10:47:44.379Z,11.57
2018-04-18T10:50:12.695Z,14.67
2018-04-18T10:52:41.600Z,12.23
2018-04-18T10:55:09.712Z,11.77
2018-04-18T10:57:37.829Z,10.80
2018-04-18T11:00:06.737Z,10.57
2018-04-18T11:02:34.864Z,12.90
2018-04-18T11:05:03.145Z,12.97
2018-04-18T11:07:31.438Z,9.53
2018-04-18T11:10:00.552Z,9.90
2018-04-18T11:12:29.432Z,10.07
2018-04-18T11:14:58.317Z,15.23
2018-04-18T11:17:27.192Z,11.80
2018-04-18T11:19:55.334Z,11.87
2018-04-18T11:22:23.441Z,9.50
2018-04-18T11:24:51.592Z,14.03
2018-04-18T11:27:19.707Z,12.53
2018-04-18T11:29:48.295Z,12.03
2018-04-18T11:32:17.163Z,10.77
2018-04-18T11:34:46.043Z,11.97
2018-04-18T11:37:14.238Z,15.03
2018-04-18T11:39:42.403Z,12.53
2018-04-18T11:42:10.484Z,11.33
2018-04-18T11:44:39.424Z,12.07
2018-04-18T11:47:07.536Z,11.43
2018-04-18T11:49:35.708Z,11.70
2018-04-18T11:52:03.852Z,10.63
2018-04-18T11:54:31.959Z,11.53
2018-04-18T11:57:00.898Z,11.20
2018-04-18T11:59:29.064Z,9.00
2018-04-18T12:01:57.172Z,8.97
2018-04-18T12:04:25.329Z,11.23
2018-04-18T12:06:54.361Z,12.03
2018-04-18T12:09:22.518Z,10.27
2018-04-18T12:11:50.731Z,13.93
2018-04-18T12:14:19.623Z,10.40
2018-04-18T12:16:48.514Z,11.83
2018-04-18T12:19:17.485Z,10.53
2018-04-18T12:21:45.622Z,8.70
2018-04-18T12:24:13.908Z,10.80
2018-04-18T12:26:42.049Z,10.40
2018-04-18T12:29:10.181Z,10.10
2018-04-18T12:31:38.377Z,9.47
2018-04-18T12:34:07.229Z,11.23
2018-04-18T12:36:35.369Z,11.83
2018-04-18T12:39:03.493Z,11.90
2018-04-18T12:41:32.729Z,8.13
2018-04-18T12:44:01.086Z,10.83
2018-04-18T12:46:29.969Z,12.73
2018-04-18T12:48:58.958Z,7.73
2018-04-18T12:51:27.141Z,12.17
2018-04-18T12:53:56.033Z,9.47
2018-04-18T12:56:25.182Z,11.07
2018-04-18T12:58:53.278Z,11.17
2018-04-18T13:01:21.692Z,6.27
2018-04-18T13:03:49.801Z,10.53
2018-04-18T13:06:17.906Z,8.33
2018-04-18T13:08:46.034Z,11.03
2018-04-18T13:11:14.192Z,7.50
2018-04-18T13:13:42.471Z,10.50
2018-04-18T13:16:10.562Z,8.50
2018-04-18T13:18:38.681Z,11.77
2018-04-18T13:21:07.555Z,9.43
2018-04-18T13:23:35.676Z,10.73
2018-04-18T13:26:03.973Z,7.20
2018-04-18T13:28:32.255Z,11.43
2018-04-18T13:31:00.616Z,11.43
2018-04-18T13:33:29.465Z,8.27
2018-04-18T13:35:58.341Z,10.33
2018-04-18T13:38:26.449Z,9.83
2018-04-18T13:40:54.552Z,7.43
2018-04-18T13:43:22.791Z,9.47
2018-04-18T13:45:51.662Z,7.57
2018-04-18T13:48:19.919Z,9.30
2018-04-18T13:50:48.103Z,9.00
2018-04-18T13:53:16.849Z,9.60
2018-04-18T13:55:45.016Z,9.97
2018-04-18T13:58:13.213Z,11.37
2018-04-18T14:00:41.338Z,10.17
2018-04-18T14:03:10.200Z,8.50
2018-04-18T14:05:38.304Z,9.40
2018-04-18T14:08:06.415Z,9.03
2018-04-18T14:10:34.569Z,10.10
2018-04-18T14:13:02.742Z,8.20
2018-04-18T14:15:30.835Z,8.87
2018-04-18T14:17:59.772Z,9.80
2018-04-18T14:20:28.653Z,11.97
2018-04-18T14:22:56.757Z,9.33
2018-04-18T14:25:25.009Z,8.30
2018-04-18T14:27:53.275Z,9.90
2018-04-18T14:30:21.415Z,6.73
2018-04-18T14:32:49.560Z,8.97
2018-04-18T14:35:17.733Z,9.87
2018-04-18T14:37:46.784Z,8.30
2018-04-18T14:40:14.826Z,8.90
2018-04-18T14:42:44.161Z,10.03
2018-04-18T14:45:12.259Z,8.93
2018-04-18T14:47:41.160Z,17.17
2018-04-18T14:50:09.282Z,12.53
2018-04-18T14:52:37.438Z,12.77
2018-04-18T14:55:05.566Z,10.73
2018-04-18T14:57:34.463Z,10.37
2018-04-18T15:00:03.339Z,8.77
2018-04-18T15:02:32.207Z,9.30
2018-04-18T15:05:01.841Z,9.83
2018-04-18T15:07:30.716Z,9.60
2018-04-18T15:09:58.989Z,9.90
2018-04-18T15:12:27.390Z,8.77
2018-04-18T15:14:56.276Z,12.20
2018-04-18T15:17:25.148Z,10.53
2018-04-18T15:19:53.266Z,11.00
2018-04-18T15:22:21.389Z,10.90
2018-04-18T15:24:49.571Z,9.33
2018-04-18T15:27:17.917Z,11.18
2018-04-18T15:29:46.038Z,8.25
2018-04-18T15:32:15.514Z,8.50
2018-04-18T15:34:43.624Z,11.95
2018-04-18T15:37:11.781Z,10.82
2018-04-18T15:39:40.792Z,9.00
2018-04-18T15:42:09.663Z,9.27
2018-04-18T15:44:38.585Z,8.75
2018-04-18T15:47:06.740Z,13.10
2018-04-18T15:49:35.776Z,9.18
2018-04-18T15:52:03.925Z,10.25
2018-04-18T15:54:32.031Z,9.35
2018-04-18T15:57:00.176Z,8.43
2018-04-18T15:59:28.272Z,8.65
2018-04-18T16:01:56.395Z,10.00
2018-04-18T16:04:25.640Z,8.48
2018-04-18T16:06:53.714Z,9.70
2018-04-18T16:09:21.871Z,8.35
2018-04-18T16:11:49.973Z,8.68
2018-04-18T16:14:18.099Z,9.15
2018-04-18T16:16:46.220Z,12.05
2018-04-18T16:19:14.330Z,9.95
2018-04-18T16:21:42.474Z,9.70
2018-04-18T16:24:10.671Z,8.73
2018-04-18T16:26:39.578Z,8.38
2018-04-18T16:29:19.727Z,8.90
2018-04-18T16:31:48.718Z,11.25
2018-04-18T16:34:17.578Z,8.20
2018-04-18T16:36:45.689Z,7.28
2018-04-18T16:39:13.805Z,8.50
2018-04-18T16:41:41.930Z,8.90
2018-04-18T16:44:10.799Z,8.50
2018-04-18T16:46:38.966Z,8.63
2018-04-18T16:49:07.161Z,8.75
2018-04-18T16:51:35.290Z,8.15
2018-04-18T16:54:03.473Z,11.77
2018-04-18T16:56:31.604Z,9.23
2018-04-18T16:58:59.709Z,10.93
2018-04-18T17:01:27.871Z,10.05
2018-04-18T17:03:56.138Z,10.13
2018-04-18T17:06:24.473Z,10.38
2018-04-18T17:08:53.701Z,11.38
2018-04-18T17:11:22.060Z,11.88
2018-04-18T17:13:51.100Z,11.68
2018-04-18T17:16:19.212Z,14.43
2018-04-18T17:18:48.104Z,12.70
2018-04-18T17:21:16.695Z,13.32
2018-04-18T17:23:47.121Z,13.32
2018-04-18T17:26:15.999Z,14.95
2018-04-18T17:28:44.895Z,12.10
2018-04-18T17:31:13.805Z,9.60
2018-04-18T17:33:42.684Z,14.87
2018-04-18T17:36:11.557Z,9.80
2018-04-18T17:38:39.711Z,12.50
2018-04-18T17:41:09.159Z,12.55
2018-04-18T17:43:38.548Z,14.40
2018-04-18T17:46:07.565Z,11.93
2018-04-18T17:48:35.681Z,13.30
2018-04-18T17:51:03.834Z,9.53
2018-04-18T17:53:31.917Z,11.93
2018-04-18T17:56:00.105Z,7.47
2018-04-18T17:58:28.245Z,10.30
2018-04-18T18:00:56.366Z,7.73
2018-04-18T18:03:25.260Z,9.20
2018-04-18T18:05:53.377Z,11.50
2018-04-18T18:08:21.634Z,8.40
2018-04-18T18:10:50.622Z,10.43
2018-04-18T18:13:19.525Z,10.03
2018-04-18T18:15:47.769Z,9.67
2018-04-18T18:18:16.654Z,11.33
2018-04-18T18:20:44.781Z,10.37
2018-04-18T18:23:12.956Z,10.40
2018-04-18T18:25:41.094Z,14.77
2018-04-18T18:28:09.285Z,11.27
2018-04-18T18:30:37.397Z,10.13
2018-04-18T18:33:05.539Z,13.33
2018-04-18T18:35:33.740Z,9.83
2018-04-18T18:38:02.592Z,12.37
2018-04-18T18:40:31.453Z,11.33
2018-04-18T18:42:59.624Z,12.33
2018-04-18T18:45:27.759Z,13.73
2018-04-18T18:47:57.402Z,9.83
2018-04-18T18:50:25.507Z,13.57
2018-04-18T18:52:54.652Z,9.80
2018-04-18T18:55:22.768Z,14.10
2018-04-18T18:57:51.640Z,10.17
2018-04-18T19:00:19.763Z,8.43
2018-04-18T19:02:47.889Z,12.23
2018-04-18T19:05:16.024Z,7.87
2018-04-18T19:07:44.282Z,10.03
2018-04-18T19:10:12.409Z,10.67
2018-04-18T19:12:40.649Z,13.07
2018-04-18T19:15:08.789Z,9.57
2018-04-18T19:17:37.157Z,10.73
2018-04-18T19:20:06.026Z,9.73
2018-04-18T19:22:34.156Z,7.53
2018-04-18T19:25:02.277Z,11.80
2018-04-18T19:27:31.183Z,9.33
2018-04-18T19:30:00.079Z,15.20
2018-04-18T19:32:28.203Z,7.97
2018-04-18T19:34:56.315Z,9.17
2018-04-18T19:37:26.221Z,10.20
2018-04-18T19:39:55.256Z,6.83
2018-04-18T19:42:23.443Z,7.63
2018-04-18T19:44:52.145Z,7.60
2018-04-18T19:47:20.370Z,7.57
2018-04-18T19:49:48.598Z,7.23
2018-04-18T19:52:16.710Z,9.47
2018-04-18T19:54:44.841Z,15.10
2018-04-18T19:57:12.970Z,12.20
2018-04-18T19:59:41.323Z,6.90
2018-04-18T20:02:09.713Z,6.43
2018-04-18T20:04:39.093Z,11.53
2018-04-18T20:07:07.235Z,8.23
2018-04-18T20:09:35.373Z,10.60
2018-04-18T20:12:03.675Z,6.10
2018-04-18T20:14:31.815Z,6.00
2018-04-18T20:17:00.699Z,9.77
2018-04-18T20:19:29.560Z,8.70
2018-04-18T20:21:57.952Z,6.70
2018-04-18T20:24:26.954Z,6.70
2018-04-18T20:26:55.865Z,6.77
2018-04-18T20:29:24.857Z,7.60
2018-04-18T20:31:53.027Z,8.80
2018-04-18T20:34:21.914Z,7.23
2018-04-18T20:36:50.800Z,6.10
2018-04-18T20:39:19.782Z,10.63
2018-04-18T20:41:55.765Z,6.60
2018-04-18T20:44:24.650Z,9.13
2018-04-18T20:46:53.519Z,9.47
2018-04-18T20:49:22.451Z,10.13
2018-04-18T20:51:51.230Z,10.60
2018-04-18T20:54:20.122Z,9.40
2018-04-18T20:56:50.481Z,10.23
2018-04-18T20:59:18.627Z,9.40
2018-04-18T21:01:46.785Z,9.77
2018-04-18T21:04:14.944Z,7.47
2018-04-18T21:06:43.829Z,11.97
2018-04-18T21:09:12.695Z,10.60
2018-04-18T21:11:41.828Z,11.03
2018-04-18T21:14:10.838Z,10.03
2018-04-18T21:16:38.964Z,10.50
2018-04-18T21:19:07.094Z,10.47
2018-04-18T21:21:35.204Z,9.57
2018-04-18T21:24:03.324Z,10.03
2018-04-18T21:26:31.449Z,12.00
2018-04-18T21:28:59.572Z,12.30
2018-04-18T21:31:27.675Z,10.10
2018-04-18T21:33:55.812Z,10.00
2018-04-18T21:36:24.659Z,7.80
2018-04-18T21:38:52.749Z,9.30
2018-04-18T21:41:23.038Z,11.07
2018-04-18T21:43:51.169Z,8.07
2018-04-18T21:46:19.285Z,9.83
2018-04-18T21:48:48.217Z,7.23
2018-04-18T21:51:17.104Z,9.33
2018-04-18T21:53:46.180Z,14.27
2018-04-18T21:56:14.408Z,11.97
2018-04-18T21:58:42.525Z,13.63
2018-04-18T22:01:10.774Z,9.53
2018-04-18T22:03:39.861Z,8.77
2018-04-18T22:06:07.977Z,11.00
2018-04-18T22:08:36.108Z,10.80
2018-04-18T22:11:04.243Z,10.10
2018-04-18T22:13:33.319Z,12.83
2018-04-18T22:16:01.410Z,8.90
2018-04-18T22:18:30.287Z,9.50
2018-04-18T22:20:58.415Z,12.43
2018-04-18T22:23:26.527Z,10.53
2018-04-18T22:25:54.663Z,9.70
2018-04-18T22:28:23.141Z,10.43
2018-04-18T22:30:51.249Z,9.17
2018-04-18T22:33:19.642Z,9.90
2018-04-18T22:35:48.520Z,9.87
2018-04-18T22:38:16.625Z,9.80
2018-04-18T22:40:46.397Z,10.97
2018-04-18T22:43:14.601Z,10.43
2018-04-18T22:45:43.491Z,13.67
2018-04-18T22:48:12.486Z,11.37
2018-04-18T22:50:41.531Z,10.70
2018-04-18T22:53:09.651Z,11.83
2018-04-18T22:55:38.613Z,8.93
2018-04-18T22:58:07.662Z,11.80
2018-04-18T23:00:35.795Z,11.57
2018-04-18T23:03:04.898Z,11.33
2018-04-18T23:05:33.095Z,12.73
2018-04-18T23:08:01.298Z,9.13
2018-04-18T23:10:30.499Z,10.77
2018-04-18T23:12:58.822Z,8.90
2018-04-18T23:15:26.972Z,12.90
2018-04-18T23:17:55.288Z,11.73
2018-04-18T23:20:24.177Z,10.67
2018-04-18T23:22:52.298Z,11.63
2018-04-18T23:25:20.413Z,14.60
2018-04-18T23:27:49.294Z,12.27
2018-04-18T23:30:18.186Z,10.03
2018-04-18T23:32:46.441Z,8.97
2018-04-18T23:35:15.380Z,9.87
2018-04-18T23:37:43.696Z,10.23
2018-04-18T23:40:11.829Z,12.27
2018-04-18T23:42:39.961Z,13.37
2018-04-18T23:45:09.588Z,9.80
2018-04-18T23:47:38.477Z,11.67
2018-04-18T23:50:07.367Z,11.70
2018-04-18T23:52:36.254Z,9.73
2018-04-18T23:55:04.377Z,9.37
2018-04-18T23:57:32.498Z,12.10
